sensor_id;sensor_type;location;lat;lon;timestamp;temperature;humidity
420;DHT22;42600;54.408;13.016;2023-08-06T00:00:29;16.30;92.70
420;DHT22;42600;54.408;13.016;2023-08-06T00:02:55;16.30;92.70
420;DHT22;42600;54.408;13.016;2023-08-06T00:05:22;16.30;92.70
420;DHT22;42600;54.408;13.016;2023-08-06T00:07:48;16.30;92.70
420;DHT22;42600;54.408;13.016;2023-08-06T00:10:15;16.30;92.70
420;DHT22;42600;54.408;13.016;2023-08-06T00:12:44;16.30;92.70
420;DHT22;42600;54.408;13.016;2023-08-06T00:15:11;16.30;92.70
420;DHT22;42600;54.408;13.016;2023-08-06T00:17:37;16.30;92.70
420;DHT22;42600;54.408;13.016;2023-08-06T00:20:05;16.20;92.70
420;DHT22;42600;54.408;13.016;2023-08-06T00:22:32;16.30;92.70
420;DHT22;42600;54.408;13.016;2023-08-06T00:24:59;16.20;92.70
420;DHT22;42600;54.408;13.016;2023-08-06T00:27:25;16.20;92.70
420;DHT22;42600;54.408;13.016;2023-08-06T00:29:53;16.20;92.70
420;DHT22;42600;54.408;13.016;2023-08-06T00:32:20;16.20;92.70
420;DHT22;42600;54.408;13.016;2023-08-06T00:34:47;16.20;92.70
420;DHT22;42600;54.408;13.016;2023-08-06T00:37:15;16.20;92.70
420;DHT22;42600;54.408;13.016;2023-08-06T00:39:41;16.20;92.70
420;DHT22;42600;54.408;13.016;2023-08-06T00:42:08;16.20;92.70
420;DHT22;42600;54.408;13.016;2023-08-06T00:44:34;16.20;92.70
420;DHT22;42600;54.408;13.016;2023-08-06T00:47:03;16.20;92.70
420;DHT22;42600;54.408;13.016;2023-08-06T00:49:30;16.10;92.70
420;DHT22;42600;54.408;13.016;2023-08-06T00:51:57;16.10;92.70
420;DHT22;42600;54.408;13.016;2023-08-06T00:54:25;16.10;92.70
420;DHT22;42600;54.408;13.016;2023-08-06T00:56:51;16.00;92.70
420;DHT22;42600;54.408;13.016;2023-08-06T00:59:19;16.00;92.70
420;DHT22;42600;54.408;13.016;2023-08-06T01:01:46;16.00;92.70
420;DHT22;42600;54.408;13.016;2023-08-06T01:04:14;16.00;92.70
420;DHT22;42600;54.408;13.016;2023-08-06T01:06:45;16.00;92.70
420;DHT22;42600;54.408;13.016;2023-08-06T01:09:21;16.00;92.70
420;DHT22;42600;54.408;13.016;2023-08-06T01:11:57;16.00;92.70
420;DHT22;42600;54.408;13.016;2023-08-06T01:14:30;16.10;92.70
420;DHT22;42600;54.408;13.016;2023-08-06T01:16:58;16.00;92.70
420;DHT22;42600;54.408;13.016;2023-08-06T01:19:26;16.00;92.70
420;DHT22;42600;54.408;13.016;2023-08-06T01:21:54;16.00;92.70
420;DHT22;42600;54.408;13.016;2023-08-06T01:24:20;16.00;92.70
420;DHT22;42600;54.408;13.016;2023-08-06T01:27:03;16.00;92.70
420;DHT22;42600;54.408;13.016;2023-08-06T01:29:35;16.00;92.70
420;DHT22;42600;54.408;13.016;2023-08-06T01:32:05;16.00;92.70
420;DHT22;42600;54.408;13.016;2023-08-06T01:34:35;15.90;92.70
420;DHT22;42600;54.408;13.016;2023-08-06T01:37:04;16.00;92.70
420;DHT22;42600;54.408;13.016;2023-08-06T01:39:33;15.90;92.70
420;DHT22;42600;54.408;13.016;2023-08-06T01:42:00;15.90;92.70
420;DHT22;42600;54.408;13.016;2023-08-06T01:44:26;15.90;92.70
420;DHT22;42600;54.408;13.016;2023-08-06T01:46:53;15.90;92.70
420;DHT22;42600;54.408;13.016;2023-08-06T01:49:19;15.90;92.70
420;DHT22;42600;54.408;13.016;2023-08-06T01:51:46;15.90;92.70
420;DHT22;42600;54.408;13.016;2023-08-06T01:54:14;15.90;92.70
420;DHT22;42600;54.408;13.016;2023-08-06T01:56:40;15.90;92.70
420;DHT22;42600;54.408;13.016;2023-08-06T01:59:07;15.90;92.70
420;DHT22;42600;54.408;13.016;2023-08-06T02:01:33;15.90;92.70
420;DHT22;42600;54.408;13.016;2023-08-06T02:04:00;15.90;92.70
420;DHT22;42600;54.408;13.016;2023-08-06T02:06:26;15.90;92.70
420;DHT22;42600;54.408;13.016;2023-08-06T02:08:53;15.90;92.70
420;DHT22;42600;54.408;13.016;2023-08-06T02:11:21;15.90;92.70
420;DHT22;42600;54.408;13.016;2023-08-06T02:13:47;15.90;92.70
420;DHT22;42600;54.408;13.016;2023-08-06T02:16:14;15.90;92.70
420;DHT22;42600;54.408;13.016;2023-08-06T02:18:41;15.90;92.70
420;DHT22;42600;54.408;13.016;2023-08-06T02:21:07;15.90;92.70
420;DHT22;42600;54.408;13.016;2023-08-06T02:23:34;15.90;92.70
420;DHT22;42600;54.408;13.016;2023-08-06T02:26:01;16.00;92.70
420;DHT22;42600;54.408;13.016;2023-08-06T02:28:30;15.90;92.70
420;DHT22;42600;54.408;13.016;2023-08-06T02:30:57;16.00;92.70
420;DHT22;42600;54.408;13.016;2023-08-06T02:33:23;15.90;92.70
420;DHT22;42600;54.408;13.016;2023-08-06T02:35:50;15.90;92.70
420;DHT22;42600;54.408;13.016;2023-08-06T02:38:17;15.90;92.70
420;DHT22;42600;54.408;13.016;2023-08-06T02:40:44;15.90;92.70
420;DHT22;42600;54.408;13.016;2023-08-06T02:43:11;15.90;92.70
420;DHT22;42600;54.408;13.016;2023-08-06T02:45:39;15.90;92.70
420;DHT22;42600;54.408;13.016;2023-08-06T02:48:06;15.90;92.70
420;DHT22;42600;54.408;13.016;2023-08-06T02:50:38;15.90;92.70
420;DHT22;42600;54.408;13.016;2023-08-06T02:53:04;15.90;92.70
420;DHT22;42600;54.408;13.016;2023-08-06T02:55:31;15.90;92.70
420;DHT22;42600;54.408;13.016;2023-08-06T02:57:57;15.90;92.70
420;DHT22;42600;54.408;13.016;2023-08-06T03:00:24;15.90;92.70
420;DHT22;42600;54.408;13.016;2023-08-06T03:02:52;15.90;92.70
420;DHT22;42600;54.408;13.016;2023-08-06T03:05:19;16.00;92.70
420;DHT22;42600;54.408;13.016;2023-08-06T03:07:46;15.90;92.70
420;DHT22;42600;54.408;13.016;2023-08-06T03:10:13;15.90;92.70
420;DHT22;42600;54.408;13.016;2023-08-06T03:12:39;16.00;92.70
420;DHT22;42600;54.408;13.016;2023-08-06T03:15:07;15.90;92.70
420;DHT22;42600;54.408;13.016;2023-08-06T03:17:34;15.90;92.70
420;DHT22;42600;54.408;13.016;2023-08-06T03:20:02;15.90;92.70
420;DHT22;42600;54.408;13.016;2023-08-06T03:22:28;15.90;92.70
420;DHT22;42600;54.408;13.016;2023-08-06T03:24:55;15.90;92.70
420;DHT22;42600;54.408;13.016;2023-08-06T03:27:21;15.90;92.70
420;DHT22;42600;54.408;13.016;2023-08-06T03:29:49;15.90;92.70
420;DHT22;42600;54.408;13.016;2023-08-06T03:32:15;15.90;92.70
420;DHT22;42600;54.408;13.016;2023-08-06T03:34:42;15.90;92.70
420;DHT22;42600;54.408;13.016;2023-08-06T03:37:10;15.90;92.70
420;DHT22;42600;54.408;13.016;2023-08-06T03:39:36;15.90;92.70
420;DHT22;42600;54.408;13.016;2023-08-06T03:42:03;15.90;92.70
420;DHT22;42600;54.408;13.016;2023-08-06T03:44:30;15.90;92.70
420;DHT22;42600;54.408;13.016;2023-08-06T03:46:56;15.90;92.70
420;DHT22;42600;54.408;13.016;2023-08-06T03:49:23;15.90;92.70
420;DHT22;42600;54.408;13.016;2023-08-06T03:51:49;15.90;92.70
420;DHT22;42600;54.408;13.016;2023-08-06T03:54:17;15.90;92.70
420;DHT22;42600;54.408;13.016;2023-08-06T03:56:44;15.90;92.70
420;DHT22;42600;54.408;13.016;2023-08-06T03:59:10;16.00;92.70
420;DHT22;42600;54.408;13.016;2023-08-06T04:01:37;15.90;92.70
420;DHT22;42600;54.408;13.016;2023-08-06T04:04:03;16.00;92.70
420;DHT22;42600;54.408;13.016;2023-08-06T04:06:30;16.00;92.70
420;DHT22;42600;54.408;13.016;2023-08-06T04:08:56;16.00;92.70
420;DHT22;42600;54.408;13.016;2023-08-06T04:11:24;16.00;92.70
420;DHT22;42600;54.408;13.016;2023-08-06T04:13:51;16.00;92.70
420;DHT22;42600;54.408;13.016;2023-08-06T04:16:17;16.00;92.70
420;DHT22;42600;54.408;13.016;2023-08-06T04:18:44;16.00;92.70
420;DHT22;42600;54.408;13.016;2023-08-06T04:21:11;16.00;92.70
420;DHT22;42600;54.408;13.016;2023-08-06T04:23:37;16.00;92.70
420;DHT22;42600;54.408;13.016;2023-08-06T04:26:04;16.00;92.70
420;DHT22;42600;54.408;13.016;2023-08-06T04:28:32;16.00;92.70
420;DHT22;42600;54.408;13.016;2023-08-06T04:30:59;16.10;92.70
420;DHT22;42600;54.408;13.016;2023-08-06T04:33:25;16.10;92.70
420;DHT22;42600;54.408;13.016;2023-08-06T04:35:54;16.10;92.70
420;DHT22;42600;54.408;13.016;2023-08-06T04:38:22;16.10;92.70
420;DHT22;42600;54.408;13.016;2023-08-06T04:40:49;16.10;92.70
420;DHT22;42600;54.408;13.016;2023-08-06T04:43:15;16.10;92.70
420;DHT22;42600;54.408;13.016;2023-08-06T04:45:47;16.20;92.70
420;DHT22;42600;54.408;13.016;2023-08-06T04:48:13;16.20;92.70
420;DHT22;42600;54.408;13.016;2023-08-06T04:50:43;16.20;92.70
420;DHT22;42600;54.408;13.016;2023-08-06T04:53:10;16.20;92.70
420;DHT22;42600;54.408;13.016;2023-08-06T04:55:36;16.20;92.70
420;DHT22;42600;54.408;13.016;2023-08-06T04:58:03;16.30;92.70
420;DHT22;42600;54.408;13.016;2023-08-06T05:00:30;16.30;92.70
420;DHT22;42600;54.408;13.016;2023-08-06T05:02:59;16.30;92.70
420;DHT22;42600;54.408;13.016;2023-08-06T05:05:26;16.30;92.70
420;DHT22;42600;54.408;13.016;2023-08-06T05:07:54;16.30;92.70
420;DHT22;42600;54.408;13.016;2023-08-06T05:10:21;16.40;92.70
420;DHT22;42600;54.408;13.016;2023-08-06T05:12:47;16.40;92.70
420;DHT22;42600;54.408;13.016;2023-08-06T05:15:14;16.40;92.70
420;DHT22;42600;54.408;13.016;2023-08-06T05:17:41;16.40;92.70
420;DHT22;42600;54.408;13.016;2023-08-06T05:20:10;16.50;92.70
420;DHT22;42600;54.408;13.016;2023-08-06T05:22:37;16.50;92.70
420;DHT22;42600;54.408;13.016;2023-08-06T05:25:04;16.50;92.70
420;DHT22;42600;54.408;13.016;2023-08-06T05:27:31;16.50;92.70
420;DHT22;42600;54.408;13.016;2023-08-06T05:29:58;16.60;92.70
420;DHT22;42600;54.408;13.016;2023-08-06T05:32:24;16.60;92.70
420;DHT22;42600;54.408;13.016;2023-08-06T05:34:51;16.60;92.70
420;DHT22;42600;54.408;13.016;2023-08-06T05:37:19;16.60;92.70
420;DHT22;42600;54.408;13.016;2023-08-06T05:39:46;16.60;92.70
420;DHT22;42600;54.408;13.016;2023-08-06T05:42:12;16.70;92.70
420;DHT22;42600;54.408;13.016;2023-08-06T05:44:39;16.70;92.70
420;DHT22;42600;54.408;13.016;2023-08-06T05:47:05;16.70;92.70
420;DHT22;42600;54.408;13.016;2023-08-06T05:49:32;16.70;92.70
420;DHT22;42600;54.408;13.016;2023-08-06T05:51:58;16.70;92.70
420;DHT22;42600;54.408;13.016;2023-08-06T05:54:27;16.80;92.70
420;DHT22;42600;54.408;13.016;2023-08-06T05:56:53;16.80;92.70
420;DHT22;42600;54.408;13.016;2023-08-06T05:59:20;16.80;92.70
420;DHT22;42600;54.408;13.016;2023-08-06T06:01:46;16.80;92.70
420;DHT22;42600;54.408;13.016;2023-08-06T06:04:13;16.80;92.70
420;DHT22;42600;54.408;13.016;2023-08-06T06:06:39;16.80;92.70
420;DHT22;42600;54.408;13.016;2023-08-06T06:09:07;16.90;92.70
420;DHT22;42600;54.408;13.016;2023-08-06T06:11:35;16.90;92.70
420;DHT22;42600;54.408;13.016;2023-08-06T06:14:01;16.90;92.70
420;DHT22;42600;54.408;13.016;2023-08-06T06:16:28;16.90;92.70
420;DHT22;42600;54.408;13.016;2023-08-06T06:18:54;17.00;92.70
420;DHT22;42600;54.408;13.016;2023-08-06T06:21:22;17.00;92.70
420;DHT22;42600;54.408;13.016;2023-08-06T06:23:49;17.00;92.70
420;DHT22;42600;54.408;13.016;2023-08-06T06:26:16;17.00;92.70
420;DHT22;42600;54.408;13.016;2023-08-06T06:28:44;17.00;92.70
420;DHT22;42600;54.408;13.016;2023-08-06T06:31:11;17.00;92.70
420;DHT22;42600;54.408;13.016;2023-08-06T06:33:38;17.10;92.70
420;DHT22;42600;54.408;13.016;2023-08-06T06:36:04;17.10;92.70
420;DHT22;42600;54.408;13.016;2023-08-06T06:38:32;17.10;92.70
420;DHT22;42600;54.408;13.016;2023-08-06T06:40:59;17.20;92.70
420;DHT22;42600;54.408;13.016;2023-08-06T06:43:27;17.20;92.70
420;DHT22;42600;54.408;13.016;2023-08-06T06:45:56;17.20;92.70
420;DHT22;42600;54.408;13.016;2023-08-06T06:48:23;17.20;92.70
420;DHT22;42600;54.408;13.016;2023-08-06T06:50:49;17.30;92.70
420;DHT22;42600;54.408;13.016;2023-08-06T06:53:16;17.30;92.70
420;DHT22;42600;54.408;13.016;2023-08-06T06:55:42;17.30;92.70
420;DHT22;42600;54.408;13.016;2023-08-06T06:58:09;17.30;92.70
420;DHT22;42600;54.408;13.016;2023-08-06T07:00:36;17.40;92.70
420;DHT22;42600;54.408;13.016;2023-08-06T07:03:04;17.40;92.70
420;DHT22;42600;54.408;13.016;2023-08-06T07:05:31;17.40;92.70
420;DHT22;42600;54.408;13.016;2023-08-06T07:07:57;17.40;92.70
420;DHT22;42600;54.408;13.016;2023-08-06T07:10:24;17.40;92.70
420;DHT22;42600;54.408;13.016;2023-08-06T07:12:50;17.50;92.70
420;DHT22;42600;54.408;13.016;2023-08-06T07:15:17;17.50;92.70
420;DHT22;42600;54.408;13.016;2023-08-06T07:17:43;17.50;92.70
420;DHT22;42600;54.408;13.016;2023-08-06T07:20:11;17.50;92.70
420;DHT22;42600;54.408;13.016;2023-08-06T07:22:38;17.60;92.70
420;DHT22;42600;54.408;13.016;2023-08-06T07:25:05;17.60;92.70
420;DHT22;42600;54.408;13.016;2023-08-06T07:27:32;17.60;92.70
420;DHT22;42600;54.408;13.016;2023-08-06T07:29:59;17.60;92.70
420;DHT22;42600;54.408;13.016;2023-08-06T07:32:26;17.60;92.70
420;DHT22;42600;54.408;13.016;2023-08-06T07:34:53;17.60;92.70
420;DHT22;42600;54.408;13.016;2023-08-06T07:37:26;17.60;92.70
420;DHT22;42600;54.408;13.016;2023-08-06T07:39:53;17.60;92.70
420;DHT22;42600;54.408;13.016;2023-08-06T07:42:20;17.70;92.70
420;DHT22;42600;54.408;13.016;2023-08-06T07:44:51;17.60;92.70
420;DHT22;42600;54.408;13.016;2023-08-06T07:47:18;17.70;92.70
420;DHT22;42600;54.408;13.016;2023-08-06T07:49:44;17.70;92.70
420;DHT22;42600;54.408;13.016;2023-08-06T07:52:11;17.70;92.70
420;DHT22;42600;54.408;13.016;2023-08-06T07:54:39;17.70;92.70
420;DHT22;42600;54.408;13.016;2023-08-06T07:57:05;17.80;92.70
420;DHT22;42600;54.408;13.016;2023-08-06T07:59:32;17.80;92.70
420;DHT22;42600;54.408;13.016;2023-08-06T08:01:59;17.80;92.70
420;DHT22;42600;54.408;13.016;2023-08-06T08:04:26;17.80;92.70
420;DHT22;42600;54.408;13.016;2023-08-06T08:06:52;17.80;92.70
420;DHT22;42600;54.408;13.016;2023-08-06T08:09:19;17.80;92.70
420;DHT22;42600;54.408;13.016;2023-08-06T08:11:47;17.80;92.70
420;DHT22;42600;54.408;13.016;2023-08-06T08:14:13;17.80;92.70
420;DHT22;42600;54.408;13.016;2023-08-06T08:16:40;17.80;92.70
420;DHT22;42600;54.408;13.016;2023-08-06T08:19:06;17.80;92.70
420;DHT22;42600;54.408;13.016;2023-08-06T08:21:33;17.80;92.70
420;DHT22;42600;54.408;13.016;2023-08-06T08:24:00;17.80;92.70
420;DHT22;42600;54.408;13.016;2023-08-06T08:26:27;17.70;92.70
420;DHT22;42600;54.408;13.016;2023-08-06T08:28:56;17.70;92.70
420;DHT22;42600;54.408;13.016;2023-08-06T08:31:22;17.70;92.70
420;DHT22;42600;54.408;13.016;2023-08-06T08:33:49;17.70;92.70
420;DHT22;42600;54.408;13.016;2023-08-06T08:36:15;17.70;92.70
420;DHT22;42600;54.408;13.016;2023-08-06T08:38:42;17.70;92.70
420;DHT22;42600;54.408;13.016;2023-08-06T08:41:10;17.70;92.70
420;DHT22;42600;54.408;13.016;2023-08-06T08:43:38;17.70;92.70
420;DHT22;42600;54.408;13.016;2023-08-06T08:46:07;17.70;92.70
420;DHT22;42600;54.408;13.016;2023-08-06T08:48:35;17.70;92.70
420;DHT22;42600;54.408;13.016;2023-08-06T08:51:02;17.70;92.70
420;DHT22;42600;54.408;13.016;2023-08-06T08:53:29;17.70;92.70
420;DHT22;42600;54.408;13.016;2023-08-06T08:55:56;17.70;92.70
420;DHT22;42600;54.408;13.016;2023-08-06T08:58:23;17.70;92.70
420;DHT22;42600;54.408;13.016;2023-08-06T09:00:50;17.70;92.70
420;DHT22;42600;54.408;13.016;2023-08-06T09:03:18;17.70;92.70
420;DHT22;42600;54.408;13.016;2023-08-06T09:05:48;17.70;92.70
420;DHT22;42600;54.408;13.016;2023-08-06T09:08:18;17.70;92.70
420;DHT22;42600;54.408;13.016;2023-08-06T09:10:47;17.60;92.70
420;DHT22;42600;54.408;13.016;2023-08-06T09:13:14;17.60;92.70
420;DHT22;42600;54.408;13.016;2023-08-06T09:15:41;17.70;92.70
420;DHT22;42600;54.408;13.016;2023-08-06T09:18:10;17.70;92.70
420;DHT22;42600;54.408;13.016;2023-08-06T09:20:39;17.70;92.70
420;DHT22;42600;54.408;13.016;2023-08-06T09:23:07;17.70;92.70
420;DHT22;42600;54.408;13.016;2023-08-06T09:25:37;17.70;92.70
420;DHT22;42600;54.408;13.016;2023-08-06T09:28:04;17.70;92.70
420;DHT22;42600;54.408;13.016;2023-08-06T09:30:32;17.70;92.70
420;DHT22;42600;54.408;13.016;2023-08-06T09:32:59;17.60;92.70
420;DHT22;42600;54.408;13.016;2023-08-06T09:35:28;17.60;92.70
420;DHT22;42600;54.408;13.016;2023-08-06T09:38:05;17.60;92.70
420;DHT22;42600;54.408;13.016;2023-08-06T09:40:32;17.60;92.70
420;DHT22;42600;54.408;13.016;2023-08-06T09:42:59;17.60;92.70
420;DHT22;42600;54.408;13.016;2023-08-06T09:45:30;17.60;92.70
420;DHT22;42600;54.408;13.016;2023-08-06T09:47:57;17.60;92.70
420;DHT22;42600;54.408;13.016;2023-08-06T09:50:28;17.60;92.70
420;DHT22;42600;54.408;13.016;2023-08-06T09:52:57;17.60;92.70
420;DHT22;42600;54.408;13.016;2023-08-06T09:55:24;17.60;92.70
420;DHT22;42600;54.408;13.016;2023-08-06T09:57:52;17.60;92.70
420;DHT22;42600;54.408;13.016;2023-08-06T10:00:20;17.70;92.70
420;DHT22;42600;54.408;13.016;2023-08-06T10:02:47;17.60;92.70
420;DHT22;42600;54.408;13.016;2023-08-06T10:05:15;17.60;92.70
420;DHT22;42600;54.408;13.016;2023-08-06T10:07:43;17.50;92.70
420;DHT22;42600;54.408;13.016;2023-08-06T10:10:11;17.60;92.70
420;DHT22;42600;54.408;13.016;2023-08-06T10:12:40;17.60;92.70
420;DHT22;42600;54.408;13.016;2023-08-06T10:15:11;17.60;92.70
420;DHT22;42600;54.408;13.016;2023-08-06T10:17:39;17.70;92.70
420;DHT22;42600;54.408;13.016;2023-08-06T10:20:08;17.70;92.70
420;DHT22;42600;54.408;13.016;2023-08-06T10:22:35;17.70;92.70
420;DHT22;42600;54.408;13.016;2023-08-06T10:25:02;17.70;92.70
420;DHT22;42600;54.408;13.016;2023-08-06T10:27:33;17.70;92.70
420;DHT22;42600;54.408;13.016;2023-08-06T10:30:25;17.70;92.70
420;DHT22;42600;54.408;13.016;2023-08-06T10:32:53;17.60;92.70
420;DHT22;42600;54.408;13.016;2023-08-06T10:35:30;17.70;92.70
420;DHT22;42600;54.408;13.016;2023-08-06T10:37:58;17.70;92.70
420;DHT22;42600;54.408;13.016;2023-08-06T10:40:26;17.70;92.70
420;DHT22;42600;54.408;13.016;2023-08-06T10:42:53;17.70;92.70
420;DHT22;42600;54.408;13.016;2023-08-06T10:45:20;17.70;92.70
420;DHT22;42600;54.408;13.016;2023-08-06T10:47:49;17.70;92.70
420;DHT22;42600;54.408;13.016;2023-08-06T10:50:17;17.70;92.70
420;DHT22;42600;54.408;13.016;2023-08-06T10:52:43;17.60;92.70
420;DHT22;42600;54.408;13.016;2023-08-06T10:55:10;17.70;92.70
420;DHT22;42600;54.408;13.016;2023-08-06T10:57:37;17.70;92.70
420;DHT22;42600;54.408;13.016;2023-08-06T11:00:07;17.70;92.70
420;DHT22;42600;54.408;13.016;2023-08-06T11:02:34;17.60;92.70
420;DHT22;42600;54.408;13.016;2023-08-06T11:05:08;17.60;92.70
420;DHT22;42600;54.408;13.016;2023-08-06T11:07:35;17.60;92.70
420;DHT22;42600;54.408;13.016;2023-08-06T11:10:02;17.60;92.70
420;DHT22;42600;54.408;13.016;2023-08-06T11:12:29;17.40;92.70
420;DHT22;42600;54.408;13.016;2023-08-06T11:14:56;17.40;92.70
420;DHT22;42600;54.408;13.016;2023-08-06T11:17:24;17.40;92.70
420;DHT22;42600;54.408;13.016;2023-08-06T11:19:51;17.40;92.70
420;DHT22;42600;54.408;13.016;2023-08-06T11:22:19;17.40;92.70
420;DHT22;42600;54.408;13.016;2023-08-06T11:24:46;17.40;92.70
420;DHT22;42600;54.408;13.016;2023-08-06T11:27:13;17.40;92.70
420;DHT22;42600;54.408;13.016;2023-08-06T11:29:40;17.40;92.70
420;DHT22;42600;54.408;13.016;2023-08-06T11:32:07;17.40;92.70
420;DHT22;42600;54.408;13.016;2023-08-06T11:34:35;17.20;92.70
420;DHT22;42600;54.408;13.016;2023-08-06T11:37:03;17.20;92.70
420;DHT22;42600;54.408;13.016;2023-08-06T11:39:31;17.20;92.70
420;DHT22;42600;54.408;13.016;2023-08-06T11:41:57;17.10;92.70
420;DHT22;42600;54.408;13.016;2023-08-06T11:44:25;17.00;92.70
420;DHT22;42600;54.408;13.016;2023-08-06T11:46:53;17.00;92.70
420;DHT22;42600;54.408;13.016;2023-08-06T11:52:09;17.00;92.70
420;DHT22;42600;54.408;13.016;2023-08-06T11:54:36;17.00;92.70
420;DHT22;42600;54.408;13.016;2023-08-06T11:57:04;17.00;92.70
420;DHT22;42600;54.408;13.016;2023-08-06T11:59:31;17.10;92.70
420;DHT22;42600;54.408;13.016;2023-08-06T12:01:59;17.20;92.70
420;DHT22;42600;54.408;13.016;2023-08-06T12:04:26;17.20;92.70
420;DHT22;42600;54.408;13.016;2023-08-06T12:06:52;17.20;92.70
420;DHT22;42600;54.408;13.016;2023-08-06T12:09:20;17.00;92.70
420;DHT22;42600;54.408;13.016;2023-08-06T12:11:47;17.00;92.70
420;DHT22;42600;54.408;13.016;2023-08-06T12:14:13;17.00;92.70
420;DHT22;42600;54.408;13.016;2023-08-06T12:16:40;16.90;92.70
420;DHT22;42600;54.408;13.016;2023-08-06T12:19:06;16.90;92.70
420;DHT22;42600;54.408;13.016;2023-08-06T12:21:33;16.90;92.70
420;DHT22;42600;54.408;13.016;2023-08-06T12:23:59;16.90;92.70
420;DHT22;42600;54.408;13.016;2023-08-06T12:26:27;16.80;92.70
420;DHT22;42600;54.408;13.016;2023-08-06T12:28:54;16.80;92.70
420;DHT22;42600;54.408;13.016;2023-08-06T12:31:22;16.70;92.70
420;DHT22;42600;54.408;13.016;2023-08-06T12:33:49;16.60;92.70
420;DHT22;42600;54.408;13.016;2023-08-06T12:36:15;16.60;92.70
420;DHT22;42600;54.408;13.016;2023-08-06T12:38:42;16.50;92.70
420;DHT22;42600;54.408;13.016;2023-08-06T12:41:09;16.50;92.70
420;DHT22;42600;54.408;13.016;2023-08-06T12:43:37;16.50;92.70
420;DHT22;42600;54.408;13.016;2023-08-06T12:46:03;16.50;92.70
420;DHT22;42600;54.408;13.016;2023-08-06T12:48:30;16.40;92.70
420;DHT22;42600;54.408;13.016;2023-08-06T12:50:56;16.20;92.70
420;DHT22;42600;54.408;13.016;2023-08-06T12:53:23;16.10;92.70
420;DHT22;42600;54.408;13.016;2023-08-06T12:55:49;16.10;92.70
420;DHT22;42600;54.408;13.016;2023-08-06T12:58:16;16.00;92.70
420;DHT22;42600;54.408;13.016;2023-08-06T13:00:44;16.00;92.70
420;DHT22;42600;54.408;13.016;2023-08-06T13:03:10;15.80;92.70
420;DHT22;42600;54.408;13.016;2023-08-06T13:05:37;15.60;92.70
420;DHT22;42600;54.408;13.016;2023-08-06T13:08:04;15.50;92.70
420;DHT22;42600;54.408;13.016;2023-08-06T13:10:30;15.50;92.70
420;DHT22;42600;54.408;13.016;2023-08-06T13:12:57;15.50;92.70
420;DHT22;42600;54.408;13.016;2023-08-06T13:15:23;15.50;92.70
420;DHT22;42600;54.408;13.016;2023-08-06T13:17:51;15.40;92.70
420;DHT22;42600;54.408;13.016;2023-08-06T13:20:18;15.40;92.70
420;DHT22;42600;54.408;13.016;2023-08-06T13:22:44;15.40;92.70
420;DHT22;42600;54.408;13.016;2023-08-06T13:25:12;15.40;92.70
420;DHT22;42600;54.408;13.016;2023-08-06T13:27:39;15.50;92.70
420;DHT22;42600;54.408;13.016;2023-08-06T13:30:07;15.40;92.70
420;DHT22;42600;54.408;13.016;2023-08-06T13:32:34;15.40;92.70
420;DHT22;42600;54.408;13.016;2023-08-06T13:35:04;15.40;92.70
420;DHT22;42600;54.408;13.016;2023-08-06T13:37:30;15.40;92.70
420;DHT22;42600;54.408;13.016;2023-08-06T13:39:57;15.30;92.70
420;DHT22;42600;54.408;13.016;2023-08-06T13:42:24;15.30;92.70
420;DHT22;42600;54.408;13.016;2023-08-06T13:44:50;15.40;92.70
420;DHT22;42600;54.408;13.016;2023-08-06T13:47:17;15.30;92.70
420;DHT22;42600;54.408;13.016;2023-08-06T13:49:43;15.30;92.70
420;DHT22;42600;54.408;13.016;2023-08-06T13:52:11;15.20;92.70
420;DHT22;42600;54.408;13.016;2023-08-06T13:54:38;15.20;92.70
420;DHT22;42600;54.408;13.016;2023-08-06T13:57:04;15.20;92.70
420;DHT22;42600;54.408;13.016;2023-08-06T13:59:31;15.10;92.70
420;DHT22;42600;54.408;13.016;2023-08-06T14:01:57;15.10;92.70
420;DHT22;42600;54.408;13.016;2023-08-06T14:04:25;15.10;92.70
420;DHT22;42600;54.408;13.016;2023-08-06T14:06:51;15.00;92.70
420;DHT22;42600;54.408;13.016;2023-08-06T14:09:19;15.00;92.70
420;DHT22;42600;54.408;13.016;2023-08-06T14:11:46;14.90;92.70
420;DHT22;42600;54.408;13.016;2023-08-06T14:14:13;14.80;92.70
420;DHT22;42600;54.408;13.016;2023-08-06T14:16:40;14.80;92.70
420;DHT22;42600;54.408;13.016;2023-08-06T14:19:06;14.70;92.70
420;DHT22;42600;54.408;13.016;2023-08-06T14:21:33;14.70;92.70
420;DHT22;42600;54.408;13.016;2023-08-06T14:23:59;14.60;92.70
420;DHT22;42600;54.408;13.016;2023-08-06T14:26:27;14.60;92.70
420;DHT22;42600;54.408;13.016;2023-08-06T14:28:54;14.60;92.70
420;DHT22;42600;54.408;13.016;2023-08-06T14:31:20;14.60;92.70
420;DHT22;42600;54.408;13.016;2023-08-06T14:33:47;14.60;92.70
420;DHT22;42600;54.408;13.016;2023-08-06T14:36:13;14.50;92.70
420;DHT22;42600;54.408;13.016;2023-08-06T14:38:40;14.50;92.70
420;DHT22;42600;54.408;13.016;2023-08-06T14:41:06;14.50;92.70
420;DHT22;42600;54.408;13.016;2023-08-06T14:43:34;14.50;92.70
420;DHT22;42600;54.408;13.016;2023-08-06T14:46:01;14.50;92.70
420;DHT22;42600;54.408;13.016;2023-08-06T14:48:27;14.50;92.70
420;DHT22;42600;54.408;13.016;2023-08-06T14:50:54;14.50;92.70
420;DHT22;42600;54.408;13.016;2023-08-06T14:53:21;14.50;92.70
420;DHT22;42600;54.408;13.016;2023-08-06T14:55:47;14.50;92.70
420;DHT22;42600;54.408;13.016;2023-08-06T14:58:14;14.50;92.70
420;DHT22;42600;54.408;13.016;2023-08-06T15:00:42;14.50;92.70
420;DHT22;42600;54.408;13.016;2023-08-06T15:03:08;14.60;92.70
420;DHT22;42600;54.408;13.016;2023-08-06T15:05:35;14.60;92.70
420;DHT22;42600;54.408;13.016;2023-08-06T15:08:01;14.60;92.70
420;DHT22;42600;54.408;13.016;2023-08-06T15:10:28;14.60;92.70
420;DHT22;42600;54.408;13.016;2023-08-06T15:12:55;14.70;92.70
420;DHT22;42600;54.408;13.016;2023-08-06T15:15:22;14.70;92.70
420;DHT22;42600;54.408;13.016;2023-08-06T15:17:52;14.80;92.70
420;DHT22;42600;54.408;13.016;2023-08-06T15:20:18;14.80;92.70
420;DHT22;42600;54.408;13.016;2023-08-06T15:22:45;14.80;92.70
420;DHT22;42600;54.408;13.016;2023-08-06T15:25:11;14.80;92.70
420;DHT22;42600;54.408;13.016;2023-08-06T15:27:38;14.80;92.70
420;DHT22;42600;54.408;13.016;2023-08-06T15:30:06;14.80;92.70
420;DHT22;42600;54.408;13.016;2023-08-06T15:32:33;14.80;92.70
420;DHT22;42600;54.408;13.016;2023-08-06T15:35:01;14.90;92.70
420;DHT22;42600;54.408;13.016;2023-08-06T15:37:29;14.90;92.70
420;DHT22;42600;54.408;13.016;2023-08-06T15:39:56;14.90;92.70
420;DHT22;42600;54.408;13.016;2023-08-06T15:42:22;15.00;92.70
420;DHT22;42600;54.408;13.016;2023-08-06T15:44:49;15.00;92.70
420;DHT22;42600;54.408;13.016;2023-08-06T15:47:16;15.00;92.70